Station Historical Data
Daily Summary for March 24, 2017 Units:  English    Metric   Both
« Previous Day
Next Day »
Daily Weekly Monthly Yearly Custom
  High: Low: Average:
Temperature: 60.9 °F 35.9 °F 46.4 °F
Dew Point: 49.4 °F 15.0 °F 35.7 °F
Humidity: 90% 36% 68%
Wind Speed: 14.0mph 0.0mph 4.4mph
Wind Gust: 24.0mph - -
Wind- - South
Pressure: 30.33 in 29.95 in -
Precipitation: 0.00 in    
Historical Graphs
 
 
Tabular Data for March 24, 2017
Time Temperature Dew Point Pressure Wind Wind Speed Wind Gust Humidity Rainfall Rate (Hourly)
00:04 35.9 °F 18.6 °F 30.33 in SE 3.0 mph 5.0 mph 49% 0.00 in
00:09 36.0 °F 18.7 °F 30.32 in SSE 3.0 mph 6.0 mph 49% 0.00 in
00:14 36.1 °F 18.3 °F 30.31 in SSE 3.0 mph 5.0 mph 48% 0.00 in
00:19 36.1 °F 18.3 °F 30.31 in SE 2.0 mph 5.0 mph 48% 0.00 in
00:24 36.2 °F 18.4 °F 30.30 in SE 2.0 mph 6.0 mph 48% 0.00 in
00:29 36.2 °F 18.4 °F 30.31 in SE 2.0 mph 6.0 mph 48% 0.00 in
00:34 36.2 °F 17.9 °F 30.30 in SE 1.0 mph 4.0 mph 47% 0.00 in
00:39 36.2 °F 17.9 °F 30.30 in SE 1.0 mph 4.0 mph 47% 0.00 in
00:44 36.3 °F 17.5 °F 30.29 in SSE 2.0 mph 4.0 mph 46% 0.00 in
00:49 36.4 °F 17.1 °F 30.28 in SSE 3.0 mph 4.0 mph 45% 0.00 in
00:54 36.6 °F 17.2 °F 30.28 in SE 3.0 mph 6.0 mph 45% 0.00 in
00:59 36.6 °F 16.7 °F 30.28 in SSE 3.0 mph 4.0 mph 44% 0.00 in
01:04 36.7 °F 16.3 °F 30.28 in SSE 2.0 mph 4.0 mph 43% 0.00 in
01:09 36.6 °F 16.2 °F 30.28 in SSE 1.0 mph 3.0 mph 43% 0.00 in
01:14 36.6 °F 16.2 °F 30.27 in Calm   2.0 mph 43% 0.00 in
01:19 36.7 °F 16.3 °F 30.27 in Calm     43% 0.00 in
01:24 36.6 °F 16.2 °F 30.26 in Calm     43% 0.00 in
01:29 36.5 °F 16.1 °F 30.25 in Calm   2.0 mph 43% 0.00 in
01:34 36.4 °F 16.0 °F 30.25 in SSE 1.0 mph 3.0 mph 43% 0.00 in
01:39 36.4 °F 16.5 °F 30.25 in Calm   3.0 mph 44% 0.00 in
01:44 36.2 °F 15.8 °F 30.25 in Calm   1.0 mph 43% 0.00 in
01:49 36.2 °F 15.8 °F 30.25 in Calm     43% 0.00 in
01:54 36.3 °F 15.4 °F 30.25 in Calm     42% 0.00 in
01:59 36.4 °F 15.5 °F 30.25 in Calm     42% 0.00 in
02:04 36.5 °F 15.0 °F 30.24 in Calm     41% 0.00 in
02:09 36.6 °F 15.6 °F 30.24 in Calm     42% 0.00 in
02:14 36.8 °F 15.3 °F 30.24 in Calm     41% 0.00 in
02:19 37.0 °F 16.0 °F 30.23 in Calm   2.0 mph 42% 0.00 in
02:24 37.1 °F 16.6 °F 30.23 in Calm   1.0 mph 43% 0.00 in
02:29 37.2 °F 16.2 °F 30.23 in Calm   1.0 mph 42% 0.00 in
02:34 37.2 °F 16.2 °F 30.23 in Calm   1.0 mph 42% 0.00 in
02:39 37.3 °F 16.3 °F 30.23 in Calm   1.0 mph 42% 0.00 in
02:44 37.4 °F 16.9 °F 30.22 in Calm   1.0 mph 43% 0.00 in
02:49 37.4 °F 16.9 °F 30.22 in Calm     43% 0.00 in
02:54 37.5 °F 18.1 °F 30.22 in Calm     45% 0.00 in
02:59 37.5 °F 16.5 °F 30.22 in Calm     42% 0.00 in
03:04 37.7 °F 17.7 °F 30.22 in Calm     44% 0.00 in
03:09 37.7 °F 16.6 °F 30.21 in Calm     42% 0.00 in
03:14 37.9 °F 16.3 °F 30.21 in SSE 1.0 mph 1.0 mph 41% 0.00 in
03:19 38.1 °F 16.4 °F 30.20 in Calm   3.0 mph 41% 0.00 in
03:24 38.4 °F 16.7 °F 30.19 in Calm   3.0 mph 41% 0.00 in
03:29 38.6 °F 16.3 °F 30.19 in Calm     40% 0.00 in
03:34 38.8 °F 16.5 °F 30.19 in Calm     40% 0.00 in
03:39 39.0 °F 16.1 °F 30.18 in Calm     39% 0.00 in
03:44 39.4 °F 15.9 °F 30.18 in South 3.0 mph 4.0 mph 38% 0.00 in
03:49 40.1 °F 15.9 °F 30.17 in South 1.0 mph 6.0 mph 37% 0.00 in
03:54 40.6 °F 16.3 °F 30.17 in South 3.0 mph 6.0 mph 37% 0.00 in
03:59 40.9 °F 16.0 °F 30.17 in South 2.0 mph 5.0 mph 36% 0.00 in
04:04 41.2 °F 16.9 °F 30.17 in South 2.0 mph 4.0 mph 37% 0.00 in
04:09 41.3 °F 16.9 °F 30.17 in SSE 2.0 mph 4.0 mph 37% 0.00 in
04:14 41.5 °F 16.5 °F 30.17 in SSW 1.0 mph 4.0 mph 36% 0.00 in
04:19 41.6 °F 17.2 °F 30.17 in South 3.0 mph 3.0 mph 37% 0.00 in
04:24 41.7 °F 17.9 °F 30.17 in South 4.0 mph 4.0 mph 38% 0.00 in
04:29 41.9 °F 18.1 °F 30.17 in South 3.0 mph 5.0 mph 38% 0.00 in
04:34 42.1 °F 18.3 °F 30.16 in South 3.0 mph 5.0 mph 38% 0.00 in
04:39 42.3 °F 19.1 °F 30.16 in South 3.0 mph 7.0 mph 39% 0.00 in
04:44 42.4 °F 19.2 °F 30.16 in South 3.0 mph 7.0 mph 39% 0.00 in
04:49 42.5 °F 18.6 °F 30.16 in South 2.0 mph 6.0 mph 38% 0.00 in
04:54 42.6 °F 19.9 °F 30.16 in South 3.0 mph 6.0 mph 40% 0.00 in
04:59 42.9 °F 19.6 °F 30.16 in South 4.0 mph 12.0 mph 39% 0.00 in
05:04 43.0 °F 21.4 °F 30.15 in SSE 4.0 mph 6.0 mph 42% 0.00 in
05:09 43.0 °F 22.0 °F 30.16 in SSW 2.0 mph 8.0 mph 43% 0.00 in
05:14 43.2 °F 23.8 °F 30.16 in SW 1.0 mph 9.0 mph 46% 0.00 in
05:19 43.5 °F 23.5 °F 30.17 in SSW 4.0 mph 11.0 mph 45% 0.00 in
05:24 43.6 °F 25.7 °F 30.16 in SSW 4.0 mph 7.0 mph 49% 0.00 in
05:29 43.5 °F 26.1 °F 30.16 in SSW 4.0 mph 8.0 mph 50% 0.00 in
05:34 43.3 °F 26.8 °F 30.17 in SSW 5.0 mph 16.0 mph 52% 0.01 in
05:39 43.2 °F 27.7 °F 30.16 in SSW 7.0 mph 17.0 mph 54% 0.01 in
05:44 43.1 °F 29.3 °F 30.17 in SSW 6.0 mph 17.0 mph 58% 0.01 in
05:49 42.7 °F 29.8 °F 30.17 in SSW 4.0 mph 10.0 mph 60% 0.01 in
05:54 42.4 °F 29.9 °F 30.16 in South 6.0 mph 9.0 mph 61% 0.01 in
05:59 42.0 °F 30.7 °F 30.16 in South 5.0 mph 9.0 mph 64% 0.01 in
06:04 41.7 °F 30.8 °F 30.16 in South 6.0 mph 10.0 mph 65% 0.01 in
06:09 41.6 °F 30.7 °F 30.16 in SSE 3.0 mph 8.0 mph 65% 0.01 in
06:14 41.4 °F 31.3 °F 30.16 in SE 2.0 mph 7.0 mph 67% 0.01 in
06:19 41.1 °F 31.3 °F 30.16 in SW 5.0 mph 9.0 mph 68% 0.02 in
06:24 40.9 °F 31.1 °F 30.16 in SSW 4.0 mph 9.0 mph 68% 0.02 in
06:29 40.8 °F 31.1 °F 30.15 in SSW 5.0 mph 11.0 mph 68% 0.03 in
06:34 40.8 °F 31.4 °F 30.16 in SSW 5.0 mph 14.0 mph 69% 0.02 in
06:39 40.7 °F 31.3 °F 30.16 in SSW 5.0 mph 14.0 mph 69% 0.03 in
06:44 40.5 °F 31.5 °F 30.16 in SSW 6.0 mph 11.0 mph 70% 0.04 in
06:49 40.2 °F 31.9 °F 30.17 in SSW 6.0 mph 13.0 mph 72% 0.05 in
06:54 39.8 °F 32.2 °F 30.16 in SSW 3.0 mph 8.0 mph 74% 0.06 in
06:59 39.3 °F 32.4 °F 30.17 in SW 4.0 mph 10.0 mph 76% 0.06 in
07:04 39.0 °F 32.7 °F 30.17 in SSW 4.0 mph 10.0 mph 78% 0.07 in
07:09 38.6 °F 32.6 °F 30.18 in SSW 2.0 mph 6.0 mph 79% 0.08 in
07:14 38.4 °F 32.8 °F 30.17 in Calm   5.0 mph 80% 0.09 in
07:19 38.0 °F 33.0 °F 30.17 in Calm   2.0 mph 82% 0.09 in
07:24 38.0 °F 33.3 °F 30.17 in South 2.0 mph 2.0 mph 83% 0.10 in
07:29 37.9 °F 33.5 °F 30.17 in Calm   2.0 mph 84% 0.10 in
07:34 37.9 °F 33.8 °F 30.16 in Calm   2.0 mph 85% 0.11 in
07:39 38.0 °F 34.2 °F 30.15 in Calm   2.0 mph 86% 0.10 in
07:44 38.0 °F 34.2 °F 30.14 in ESE 1.0 mph 3.0 mph 86% 0.10 in
07:49 38.0 °F 34.5 °F 30.14 in ESE 1.0 mph 3.0 mph 87% 0.09 in
07:54 38.0 °F 34.5 °F 30.14 in East 1.0 mph 3.0 mph 87% 0.09 in
07:59 38.1 °F 34.6 °F 30.14 in ENE 2.0 mph 3.0 mph 87% 0.09 in
08:04 38.0 °F 34.8 °F 30.14 in East 1.0 mph 5.0 mph 88% 0.09 in
08:09 38.0 °F 34.8 °F 30.13 in ESE 2.0 mph 5.0 mph 88% 0.09 in
08:14 38.0 °F 34.8 °F 30.12 in ESE 2.0 mph 5.0 mph 88% 0.08 in
08:19 37.8 °F 34.6 °F 30.12 in SE 5.0 mph 8.0 mph 88% 0.07 in
08:24 37.8 °F 34.6 °F 30.11 in SSE 6.0 mph 7.0 mph 88% 0.06 in
08:29 37.9 °F 34.9 °F 30.10 in SSE 4.0 mph 9.0 mph 89% 0.05 in
08:34 38.0 °F 35.0 °F 30.10 in SE 3.0 mph 9.0 mph 89% 0.04 in
08:39 38.0 °F 35.0 °F 30.10 in SE 3.0 mph 8.0 mph 89% 0.04 in
08:44 38.2 °F 35.2 °F 30.10 in SE 3.0 mph 7.0 mph 89% 0.03 in
08:49 38.3 °F 35.3 °F 30.10 in SE 3.0 mph 7.0 mph 89% 0.03 in
08:54 38.4 °F 35.4 °F 30.09 in ESE 2.0 mph 6.0 mph 89% 0.02 in
08:59 38.6 °F 35.9 °F 30.09 in SSE 3.0 mph 6.0 mph 90% 0.02 in
09:04 38.8 °F 36.1 °F 30.08 in SE 2.0 mph 5.0 mph 90% 0.01 in
09:09 39.0 °F 36.3 °F 30.08 in SE 2.0 mph 6.0 mph 90% 0.00 in
09:14 39.3 °F 36.6 °F 30.09 in South 3.0 mph 5.0 mph 90% 0.00 in
09:19 39.6 °F 36.9 °F 30.08 in SE 4.0 mph 6.0 mph 90% 0.00 in
09:24 39.8 °F 36.8 °F 30.08 in South 2.0 mph 5.0 mph 89% 0.00 in
09:34 40.2 °F 37.5 °F 30.08 in South 3.0 mph 3.0 mph 90% 0.00 in
09:39 40.5 °F 37.8 °F 30.08 in South 2.0 mph 4.0 mph 90% 0.00 in
09:44 40.8 °F 38.1 °F 30.07 in South 2.0 mph 5.0 mph 90% 0.00 in
09:49 41.2 °F 38.2 °F 30.08 in South 2.0 mph 5.0 mph 89% 0.00 in
09:54 41.5 °F 38.5 °F 30.07 in SSE 3.0 mph 3.0 mph 89% 0.00 in
09:59 41.9 °F 38.9 °F 30.07 in SSE 1.0 mph 3.0 mph 89% 0.00 in
10:04 42.4 °F 39.4 °F 30.08 in Calm   3.0 mph 89% 0.00 in
10:09 42.8 °F 39.8 °F 30.07 in SSW 1.0 mph 3.0 mph 89% 0.00 in
10:14 43.4 °F 40.4 °F 30.08 in SSW 1.0 mph 5.0 mph 89% 0.00 in
10:19 44.0 °F 40.7 °F 30.07 in SSW 2.0 mph 6.0 mph 88% 0.00 in
10:24 44.4 °F 40.8 °F 30.07 in South 4.0 mph 5.0 mph 87% 0.00 in
10:29 44.8 °F 40.9 °F 30.06 in SSW 2.0 mph 6.0 mph 86% 0.00 in
10:34 45.2 °F 41.0 °F 30.06 in South 2.0 mph 5.0 mph 85% 0.00 in
10:39 45.5 °F 40.9 °F 30.06 in SSW 2.0 mph 5.0 mph 84% 0.00 in
10:44 45.9 °F 41.3 °F 30.06 in SSW 3.0 mph 5.0 mph 84% 0.00 in
10:49 46.3 °F 41.4 °F 30.06 in SW 2.0 mph 5.0 mph 83% 0.00 in
10:54 46.6 °F 41.7 °F 30.06 in South 3.0 mph 7.0 mph 83% 0.00 in
10:59 47.0 °F 41.8 °F 30.05 in South 5.0 mph 7.0 mph 82% 0.00 in
11:04 47.4 °F 42.2 °F 30.05 in SSW 3.0 mph 8.0 mph 82% 0.00 in
11:09 48.1 °F 42.5 °F 30.05 in SSW 3.0 mph 6.0 mph 81% 0.00 in
11:14 48.9 °F 43.0 °F 30.05 in SW 4.0 mph 8.0 mph 80% 0.00 in
11:19 49.7 °F 43.5 °F 30.05 in SW 4.0 mph 8.0 mph 79% 0.00 in
11:24 50.3 °F 43.4 °F 30.04 in SW 4.0 mph 9.0 mph 77% 0.00 in
11:29 50.5 °F 43.2 °F 30.04 in SW 5.0 mph 12.0 mph 76% 0.00 in
11:34 50.6 °F 43.0 °F 30.04 in SW 6.0 mph 12.0 mph 75% 0.00 in
11:39 50.9 °F 43.3 °F 30.04 in WSW 6.0 mph 9.0 mph 75% 0.00 in
11:44 51.1 °F 43.1 °F 30.03 in SW 6.0 mph 11.0 mph 74% 0.00 in
11:49 51.5 °F 43.5 °F 30.02 in SW 6.0 mph 11.0 mph 74% 0.00 in
11:54 51.8 °F 43.4 °F 30.02 in SSE 7.0 mph 12.0 mph 73% 0.00 in
11:59 51.9 °F 43.5 °F 30.02 in SW 4.0 mph 12.0 mph 73% 0.00 in
12:04 52.0 °F 43.3 °F 30.02 in WSW 4.0 mph 13.0 mph 72% 0.00 in
12:09 52.1 °F 43.7 °F 30.02 in SW 3.0 mph 11.0 mph 73% 0.00 in
12:14 52.4 °F 44.0 °F 30.02 in SSE 3.0 mph 10.0 mph 73% 0.00 in
12:19 52.3 °F 43.2 °F 30.02 in SW 6.0 mph 12.0 mph 71% 0.00 in
12:24 52.2 °F 43.1 °F 30.01 in SW 6.0 mph 12.0 mph 71% 0.00 in
12:29 52.3 °F 43.5 °F 30.01 in SW 6.0 mph 11.0 mph 72% 0.00 in
12:34 52.2 °F 42.7 °F 30.01 in SW 6.0 mph 11.0 mph 70% 0.00 in
12:39 52.0 °F 42.5 °F 30.01 in SW 7.0 mph 13.0 mph 70% 0.00 in
12:44 51.9 °F 42.4 °F 30.01 in SW 7.0 mph 14.0 mph 70% 0.00 in
12:49 52.0 °F 42.5 °F 30.00 in SW 6.0 mph 14.0 mph 70% 0.00 in
12:54 51.8 °F 41.9 °F 30.00 in SW 7.0 mph 16.0 mph 69% 0.00 in
12:59 51.9 °F 42.0 °F 30.00 in WSW 3.0 mph 18.0 mph 69% 0.00 in
13:04 52.2 °F 42.3 °F 30.00 in SW 7.0 mph 12.0 mph 69% 0.00 in
13:09 52.6 °F 42.7 °F 30.00 in WSW 8.0 mph 13.0 mph 69% 0.00 in
13:14 53.3 °F 43.0 °F 30.00 in SW 10.0 mph 13.0 mph 68% 0.00 in
13:19 53.4 °F 42.7 °F 30.00 in South 5.0 mph 15.0 mph 67% 0.00 in
13:24 53.1 °F 41.6 °F 30.00 in WSW 8.0 mph 15.0 mph 65% 0.00 in
13:29 52.6 °F 41.6 °F 30.00 in WSW 8.0 mph 15.0 mph 66% 0.00 in
13:34 52.1 °F 41.1 °F 30.00 in SW 9.0 mph 16.0 mph 66% 0.00 in
13:39 52.0 °F 41.8 °F 29.99 in SW 8.0 mph 16.0 mph 68% 0.00 in
13:44 51.9 °F 41.3 °F 30.00 in SW 3.0 mph 15.0 mph 67% 0.00 in
13:49 51.3 °F 40.7 °F 29.99 in WSW 5.0 mph 15.0 mph 67% 0.00 in
13:54 51.0 °F 40.8 °F 29.99 in WSW 7.0 mph 15.0 mph 68% 0.00 in
13:59 50.8 °F 40.6 °F 29.99 in WSW 7.0 mph 16.0 mph 68% 0.00 in
14:04 51.0 °F 41.2 °F 29.99 in SW 7.0 mph 11.0 mph 69% 0.00 in
14:14 51.1 °F 40.9 °F 29.99 in WSW 6.0 mph 13.0 mph 68% 0.00 in
14:24 51.1 °F 40.9 °F 29.98 in WSW 7.0 mph 13.0 mph 68% 0.00 in
14:29 51.2 °F 41.0 °F 29.98 in WSW 7.0 mph 12.0 mph 68% 0.00 in
14:34 51.5 °F 41.3 °F 29.98 in SW 9.0 mph 13.0 mph 68% 0.00 in
14:39 51.7 °F 41.5 °F 29.98 in WSW 6.0 mph 11.0 mph 68% 0.00 in
14:44 52.3 °F 42.0 °F 29.98 in SW 8.0 mph 14.0 mph 68% 0.00 in
14:49 52.4 °F 41.4 °F 29.98 in WSW 5.0 mph 15.0 mph 66% 0.00 in
14:54 52.3 °F 41.7 °F 29.98 in WSW 8.0 mph 16.0 mph 67% 0.00 in
14:59 52.4 °F 41.8 °F 29.97 in WSW 7.0 mph 16.0 mph 67% 0.00 in
15:04 52.5 °F 41.9 °F 29.97 in WSW 8.0 mph 15.0 mph 67% 0.00 in
15:09 52.6 °F 42.3 °F 29.97 in WSW 9.0 mph 17.0 mph 68% 0.00 in
15:14 53.1 °F 42.8 °F 29.97 in WSW 8.0 mph 18.0 mph 68% 0.00 in
15:19 53.6 °F 43.3 °F 29.96 in West 3.0 mph 14.0 mph 68% 0.00 in
15:24 53.8 °F 43.1 °F 29.96 in SW 12.0 mph 15.0 mph 67% 0.00 in
15:29 54.0 °F 43.7 °F 29.96 in WSW 7.0 mph 15.0 mph 68% 0.00 in
15:34 54.4 °F 44.1 °F 29.96 in SW 8.0 mph 14.0 mph 68% 0.00 in
15:39 55.2 °F 44.8 °F 29.96 in SW 8.0 mph 17.0 mph 68% 0.00 in
15:44 56.4 °F 46.0 °F 29.96 in SW 11.0 mph 14.0 mph 68% 0.00 in
15:49 57.6 °F 46.7 °F 29.96 in SW 14.0 mph 16.0 mph 67% 0.00 in
15:54 58.7 °F 47.4 °F 29.96 in West 9.0 mph 19.0 mph 66% 0.00 in
15:59 59.3 °F 47.5 °F 29.95 in West 9.0 mph 20.0 mph 65% 0.00 in
16:04 59.4 °F 47.6 °F 29.95 in WSW 10.0 mph 20.0 mph 65% 0.00 in
16:09 59.4 °F 47.6 °F 29.95 in WSW 11.0 mph 22.0 mph 65% 0.00 in
16:14 59.8 °F 48.4 °F 29.95 in WSW 12.0 mph 24.0 mph 66% 0.00 in
16:19 60.5 °F 48.7 °F 29.95 in SW 10.0 mph 20.0 mph 65% 0.00 in
16:24 60.8 °F 49.0 °F 29.95 in West 9.0 mph 19.0 mph 65% 0.00 in
16:29 60.9 °F 49.1 °F 29.95 in West 8.0 mph 18.0 mph 65% 0.00 in
16:34 60.9 °F 49.1 °F 29.95 in WSW 9.0 mph 18.0 mph 65% 0.00 in
16:39 60.5 °F 48.7 °F 29.95 in WSW 10.0 mph 17.0 mph 65% 0.00 in
16:44 60.3 °F 48.9 °F 29.95 in WSW 9.0 mph 17.0 mph 66% 0.00 in
16:49 60.3 °F 48.9 °F 29.95 in WSW 7.0 mph 16.0 mph 66% 0.00 in
16:54 60.3 °F 48.9 °F 29.95 in WSW 10.0 mph 15.0 mph 66% 0.00 in
16:59 60.4 °F 49.4 °F 29.95 in SSW 7.0 mph 16.0 mph 67% 0.00 in
17:04 60.5 °F 49.1 °F 29.95 in WSW 9.0 mph 18.0 mph 66% 0.00 in
17:09 60.7 °F 49.3 °F 29.95 in WSW 10.0 mph 20.0 mph 66% 0.00 in
17:14 60.5 °F 49.1 °F 29.95 in WSW 11.0 mph 19.0 mph 66% 0.00 in
17:19 60.0 °F 48.6 °F 29.96 in SSW 7.0 mph 13.0 mph 66% 0.00 in
17:24 59.4 °F 48.4 °F 29.96 in WSW 13.0 mph 18.0 mph 67% 0.00 in
17:29 59.0 °F 48.4 °F 29.96 in WSW 10.0 mph 15.0 mph 68% 0.00 in
17:34 58.7 °F 48.2 °F 29.95 in WSW 9.0 mph 17.0 mph 68% 0.00 in
17:39 58.2 °F 48.1 °F 29.95 in WSW 10.0 mph 23.0 mph 69% 0.00 in
17:44 57.8 °F 47.7 °F 29.95 in WSW 10.0 mph 23.0 mph 69% 0.00 in
17:49 57.4 °F 47.7 °F 29.96 in WSW 9.0 mph 17.0 mph 70% 0.00 in
17:54 57.1 °F 47.8 °F 29.95 in WSW 9.0 mph 17.0 mph 71% 0.00 in
17:59 57.0 °F 47.7 °F 29.96 in WSW 9.0 mph 17.0 mph 71% 0.00 in
18:04 56.8 °F 47.5 °F 29.95 in WSW 8.0 mph 15.0 mph 71% 0.00 in
18:09 56.9 °F 47.6 °F 29.96 in WSW 4.0 mph 18.0 mph 71% 0.00 in
18:14 56.8 °F 47.5 °F 29.96 in SW 6.0 mph 10.0 mph 71% 0.00 in
18:19 56.8 °F 47.9 °F 29.96 in WSW 11.0 mph 15.0 mph 72% 0.00 in
18:24 56.8 °F 47.5 °F 29.96 in WSW 9.0 mph 14.0 mph 71% 0.00 in
18:29 56.9 °F 48.0 °F 29.96 in WSW 8.0 mph 12.0 mph 72% 0.00 in
18:34 57.0 °F 48.1 °F 29.96 in WNW 7.0 mph 14.0 mph 72% 0.00 in
18:39 56.9 °F 48.0 °F 29.96 in WSW 7.0 mph 15.0 mph 72% 0.00 in
18:44 56.8 °F 47.9 °F 29.96 in WSW 7.0 mph 15.0 mph 72% 0.00 in
18:49 56.6 °F 47.7 °F 29.96 in WSW 8.0 mph 15.0 mph 72% 0.00 in
18:54 56.4 °F 47.5 °F 29.96 in WSW 8.0 mph 15.0 mph 72% 0.00 in
18:59 56.3 °F 47.4 °F 29.96 in WSW 8.0 mph 14.0 mph 72% 0.00 in
19:04 56.1 °F 47.2 °F 29.97 in WSW 7.0 mph 13.0 mph 72% 0.00 in
19:09 55.5 °F 46.2 °F 29.97 in WSW 6.0 mph 12.0 mph 71% 0.00 in
19:14 54.7 °F 45.8 °F 29.97 in SW 5.0 mph 11.0 mph 72% 0.00 in
19:19 53.4 °F 44.6 °F 29.97 in SW 3.0 mph 9.0 mph 72% 0.00 in
19:24 52.0 °F 44.0 °F 29.98 in SW 4.0 mph 7.0 mph 74% 0.00 in
19:29 51.3 °F 43.6 °F 29.98 in SW 4.0 mph 9.0 mph 75% 0.00 in
19:34 50.8 °F 43.5 °F 29.98 in SSW 6.0 mph 9.0 mph 76% 0.00 in
19:39 50.6 °F 44.0 °F 29.99 in SSW 5.0 mph 9.0 mph 78% 0.00 in
19:44 50.5 °F 43.9 °F 29.99 in SW 4.0 mph 9.0 mph 78% 0.00 in
19:49 50.4 °F 43.8 °F 29.99 in SW 4.0 mph 7.0 mph 78% 0.00 in
19:54 50.2 °F 43.6 °F 30.00 in WSW 4.0 mph 7.0 mph 78% 0.00 in
19:59 50.1 °F 43.8 °F 30.00 in WSW 3.0 mph 7.0 mph 79% 0.00 in
20:04 50.1 °F 43.8 °F 30.00 in SW 2.0 mph 6.0 mph 79% 0.00 in
20:09 50.3 °F 44.0 °F 30.00 in SW 3.0 mph 6.0 mph 79% 0.00 in
20:14 50.4 °F 44.1 °F 30.00 in SW 3.0 mph 8.0 mph 79% 0.00 in
20:19 50.6 °F 44.3 °F 30.00 in SW 3.0 mph 6.0 mph 79% 0.00 in
20:24 50.4 °F 44.1 °F 30.00 in SSW 5.0 mph 6.0 mph 79% 0.00 in
20:29 50.2 °F 43.9 °F 30.01 in WSW 5.0 mph 6.0 mph 79% 0.00 in
20:34 49.9 °F 43.6 °F 30.01 in WSW 1.0 mph 7.0 mph 79% 0.00 in
20:39 49.6 °F 43.4 °F 30.02 in NW 2.0 mph 3.0 mph 79% 0.00 in
20:44 49.5 °F 43.6 °F 30.02 in Calm   3.0 mph 80% 0.00 in
20:49 49.4 °F 43.5 °F 30.03 in West 1.0 mph 5.0 mph 80% 0.00 in
20:54 49.4 °F 43.5 °F 30.03 in SW 2.0 mph 6.0 mph 80% 0.00 in
20:59 49.3 °F 43.4 °F 30.03 in SW 2.0 mph 6.0 mph 80% 0.00 in
21:04 49.3 °F 43.4 °F 30.04 in WSW 2.0 mph 5.0 mph 80% 0.00 in
21:09 49.3 °F 43.7 °F 30.04 in NNE 1.0 mph 5.0 mph 81% 0.00 in
21:14 49.6 °F 44.0 °F 30.05 in NE 3.0 mph 13.0 mph 81% 0.00 in
21:19 49.7 °F 43.5 °F 30.04 in NE 2.0 mph 11.0 mph 79% 0.00 in
21:24 49.8 °F 42.9 °F 30.05 in NNE 6.0 mph 14.0 mph 77% 0.00 in
21:29 49.8 °F 42.5 °F 30.04 in NNE 3.0 mph 13.0 mph 76% 0.00 in
21:34 49.7 °F 42.8 °F 30.03 in NNE 7.0 mph 12.0 mph 77% 0.00 in
21:39 49.4 °F 42.8 °F 30.04 in NNE 4.0 mph 13.0 mph 78% 0.00 in
21:44 49.0 °F 42.8 °F 30.05 in NE 4.0 mph 10.0 mph 79% 0.00 in
21:49 48.6 °F 42.4 °F 30.06 in NE 7.0 mph 10.0 mph 79% 0.00 in
21:54 48.3 °F 42.4 °F 30.06 in NE 6.0 mph 14.0 mph 80% 0.00 in
21:59 47.9 °F 42.0 °F 30.06 in NNE 5.0 mph 14.0 mph 80% 0.00 in
22:04 47.7 °F 41.8 °F 30.07 in NNE 5.0 mph 14.0 mph 80% 0.00 in
22:09 47.5 °F 41.6 °F 30.06 in NE 6.0 mph 14.0 mph 80% 0.00 in
22:14 47.3 °F 41.4 °F 30.07 in NNE 4.0 mph 11.0 mph 80% 0.00 in
22:19 47.0 °F 41.1 °F 30.07 in NNE 4.0 mph 12.0 mph 80% 0.00 in
22:24 46.7 °F 40.9 °F 30.07 in NE 6.0 mph 10.0 mph 80% 0.00 in
22:29 46.5 °F 41.0 °F 30.07 in NNE 3.0 mph 12.0 mph 81% 0.00 in
22:34 46.2 °F 40.7 °F 30.07 in ENE 12.0 mph 12.0 mph 81% 0.00 in
22:39 45.9 °F 40.1 °F 30.08 in NE 6.0 mph 14.0 mph 80% 0.00 in
22:44 45.6 °F 40.1 °F 30.07 in ENE 3.0 mph 13.0 mph 81% 0.00 in
22:49 45.3 °F 39.8 °F 30.08 in NNE 2.0 mph 10.0 mph 81% 0.00 in
22:54 45.0 °F 39.8 °F 30.08 in NE 4.0 mph 10.0 mph 82% 0.00 in
22:59 44.8 °F 39.6 °F 30.10 in NNE 5.0 mph 11.0 mph 82% 0.00 in
23:04 44.7 °F 39.5 °F 30.11 in NNE 6.0 mph 12.0 mph 82% 0.00 in
23:09 44.6 °F 39.4 °F 30.11 in NNE 6.0 mph 13.0 mph 82% 0.00 in
23:14 44.4 °F 38.9 °F 30.11 in NE 6.0 mph 13.0 mph 81% 0.00 in
23:19 44.3 °F 38.8 °F 30.10 in ENE 9.0 mph 15.0 mph 81% 0.00 in
23:24 44.1 °F 39.0 °F 30.09 in NE 7.0 mph 15.0 mph 82% 0.00 in
23:29 44.0 °F 38.9 °F 30.09 in NE 7.0 mph 14.0 mph 82% 0.00 in
23:34 43.9 °F 38.8 °F 30.10 in NE 8.0 mph 15.0 mph 82% 0.00 in
23:39 43.9 °F 38.8 °F 30.10 in NE 10.0 mph 12.0 mph 82% 0.00 in
23:44 43.9 °F 38.8 °F 30.10 in NE 9.0 mph 12.0 mph 82% 0.00 in
23:49 44.0 °F 38.9 °F 30.10 in NE 4.0 mph 11.0 mph 82% 0.00 in
23:54 43.9 °F 38.8 °F 30.10 in NE 6.0 mph 12.0 mph 82% 0.00 in
23:59 43.9 °F 38.8 °F 30.10 in NE 6.0 mph 12.0 mph 82% 0.00 in
Buffalo, New York, USA
Compliments of Weather Underground - 2.5 mb